Time;durP1;ratioP1;P1;durP2;ratioP2;P2;SDS_P1;SDS_P2;PMS_P1;PMS_P2;Temp;Humidity;BMP_temperature;BMP_pressure;BME280_temperature;BME280_humidity;BME280_pressure;Samples;Min_cycle;Max_cycle;Signal;HPM_P1;HPM_P2
2020/12/09 00:00:43;;;;;;;6.18;2.65;;;8.10;99.90;;;;;;5112828;28;20040;-56
2020/12/09 00:03:47;;;;;;;3.10;2.40;;;8.10;99.90;;;;;;5112489;28;20031;-56
2020/12/09 00:06:52;;;;;;;6.72;2.38;;;8.10;99.90;;;;;;5112284;28;20027;-55
2020/12/09 00:09:56;;;;;;;5.28;3.38;;;8.10;99.90;;;;;;5112523;28;20040;-57
2020/12/09 00:13:00;;;;;;;6.93;4.20;;;8.10;99.90;;;;;;5112044;28;20474;-58
2020/12/09 00:16:04;;;;;;;9.80;5.32;;;8.10;99.90;;;;;;5112663;28;20031;-55
2020/12/09 00:19:08;;;;;;;7.32;5.55;;;8.10;99.90;;;;;;5111871;28;20028;-58
2020/12/09 00:22:12;;;;;;;12.73;7.22;;;8.10;99.90;;;;;;5125607;27;20035;-56
2020/12/09 00:25:16;;;;;;;11.65;7.32;;;8.10;99.90;;;;;;5118090;27;20512;-57
2020/12/09 00:28:20;;;;;;;9.40;5.93;;;8.10;99.90;;;;;;5122832;27;20038;-54
2020/12/09 00:31:29;;;;;;;7.60;5.00;;;8.10;99.90;;;;;;5126705;27;20036;-55
2020/12/09 00:34:32;;;;;;;6.18;4.20;;;8.10;99.90;;;;;;5132966;27;20039;-58
2020/12/09 00:37:36;;;;;;;6.35;4.05;;;8.10;99.90;;;;;;5132859;27;20039;-58
2020/12/09 00:40:43;;;;;;;5.82;4.13;;;8.00;99.90;;;;;;5132694;27;20039;-55
2020/12/09 00:43:47;;;;;;;6.68;3.63;;;7.90;99.90;;;;;;5132335;27;20043;-53
2020/12/09 00:46:52;;;;;;;3.83;2.33;;;7.90;99.90;;;;;;5131792;27;20043;-57
2020/12/09 00:50:41;;;;;;;4.38;2.20;;;7.90;99.90;;;;;;5132147;27;20039;-54
2020/12/09 00:53:29;;;;;;;3.90;2.10;;;7.90;99.90;;;;;;5119351;27;20394;-57
2020/12/09 00:56:34;;;;;;;2.63;2.00;;;7.90;99.90;;;;;;5130990;27;20399;-55
2020/12/09 00:59:48;;;;;;;4.03;1.92;;;7.90;99.90;;;;;;5130984;27;20039;-57
2020/12/09 01:02:54;;;;;;;4.85;2.75;;;7.80;99.90;;;;;;5130175;27;20039;-57
2020/12/09 01:06:01;;;;;;;8.63;4.35;;;7.80;99.90;;;;;;5130930;27;20363;-57
2020/12/09 01:09:07;;;;;;;3.33;1.35;;;7.80;99.90;;;;;;5122757;27;20039;-58
2020/12/09 01:12:11;;;;;;;4.13;1.67;;;7.90;99.90;;;;;;5122560;27;20039;-53
2020/12/09 01:15:18;;;;;;;3.40;1.45;;;7.90;99.90;;;;;;5130563;27;20035;-58
2020/12/09 01:18:22;;;;;;;3.65;1.60;;;7.90;99.90;;;;;;5131709;27;20043;-56
2020/12/09 01:21:27;;;;;;;2.10;1.60;;;7.90;99.90;;;;;;5131300;27;20398;-54
2020/12/09 01:24:32;;;;;;;2.67;1.80;;;7.80;99.90;;;;;;5131056;27;20038;-56
2020/12/09 01:27:37;;;;;;;4.38;2.65;;;7.80;99.90;;;;;;5131328;27;20489;-53
2020/12/09 01:30:43;;;;;;;6.50;2.33;;;7.80;99.90;;;;;;5131277;27;20027;-56
2020/12/09 01:33:47;;;;;;;6.05;2.28;;;7.70;99.90;;;;;;5131178;27;20047;-56
2020/12/09 01:36:53;;;;;;;3.72;2.10;;;7.70;99.90;;;;;;5131380;27;20035;-55
2020/12/09 01:39:57;;;;;;;7.18;3.15;;;7.70;99.90;;;;;;5130839;27;20035;-54
2020/12/09 01:43:01;;;;;;;6.22;3.33;;;7.60;99.90;;;;;;5130618;27;20042;-52
2020/12/09 01:46:11;;;;;;;9.50;3.85;;;7.60;99.90;;;;;;5131185;27;20403;-53
2020/12/09 01:49:16;;;;;;;8.73;4.00;;;7.60;99.90;;;;;;5131167;27;20512;-56
2020/12/09 01:52:22;;;;;;;8.45;3.65;;;7.60;99.90;;;;;;5131119;27;20039;-54
2020/12/09 01:55:26;;;;;;;10.45;3.97;;;7.60;99.90;;;;;;5130879;27;20386;-59
2020/12/09 01:58:31;;;;;;;5.32;3.47;;;7.60;99.90;;;;;;5130926;27;20042;-53
2020/12/09 02:01:35;;;;;;;5.55;3.30;;;7.60;99.90;;;;;;5130591;27;20034;-54
2020/12/09 02:04:41;;;;;;;7.30;3.53;;;7.60;99.90;;;;;;5130742;27;20386;-56
2020/12/09 02:07:45;;;;;;;7.95;3.53;;;7.60;99.90;;;;;;5130701;27;20031;-56
2020/12/09 02:11:03;;;;;;;6.22;3.70;;;7.60;99.90;;;;;;5130738;27;20388;-55
2020/12/09 02:14:07;;;;;;;7.10;3.33;;;7.60;99.90;;;;;;5130341;27;20035;-52
2020/12/09 02:17:12;;;;;;;4.88;3.45;;;7.50;99.90;;;;;;5131206;27;20035;-53
2020/12/09 02:20:16;;;;;;;4.45;3.03;;;7.50;99.90;;;;;;5121617;27;20035;-56
2020/12/09 02:23:20;;;;;;;5.72;4.18;;;7.50;99.90;;;;;;5130742;27;20043;-57
2020/12/09 02:26:24;;;;;;;6.15;3.65;;;7.50;99.90;;;;;;5129056;27;20027;-56
2020/12/09 02:29:29;;;;;;;6.50;4.72;;;7.50;99.90;;;;;;5130067;27;20028;-52
2020/12/09 02:32:33;;;;;;;9.15;4.80;;;7.50;99.90;;;;;;5130648;27;20047;-53
2020/12/09 02:35:37;;;;;;;9.18;4.55;;;7.50;99.90;;;;;;5120333;27;20031;-51
2020/12/09 02:38:42;;;;;;;6.57;5.03;;;7.50;99.90;;;;;;5130290;27;20039;-54
2020/12/09 02:41:46;;;;;;;11.32;6.53;;;7.40;99.90;;;;;;5130068;27;20642;-57
2020/12/09 02:44:50;;;;;;;14.35;5.57;;;7.50;99.90;;;;;;5129427;27;20512;-56
2020/12/09 02:47:54;;;;;;;25.75;6.68;;;7.40;99.90;;;;;;5123061;28;20444;-56
2020/12/09 02:50:58;;;;;;;11.07;6.22;;;7.40;99.90;;;;;;5118630;27;20517;-54
2020/12/09 02:54:02;;;;;;;18.60;8.52;;;7.50;99.90;;;;;;5135764;27;20046;-56
2020/12/09 02:57:07;;;;;;;28.80;11.27;;;7.50;99.90;;;;;;5136334;27;20038;-56
2020/12/09 03:00:11;;;;;;;40.50;17.48;;;7.50;99.90;;;;;;5136334;27;20054;-53
2020/12/09 03:03:16;;;;;;;11.80;6.47;;;7.40;99.90;;;;;;5137072;27;20046;-51
2020/12/09 03:06:19;;;;;;;15.75;5.00;;;7.50;99.90;;;;;;5135909;27;20050;-52
2020/12/09 03:09:23;;;;;;;10.43;5.63;;;7.50;99.90;;;;;;5121946;27;20042;-55
2020/12/09 03:12:27;;;;;;;6.90;4.82;;;7.50;99.90;;;;;;5136650;27;20038;-52
2020/12/09 03:15:31;;;;;;;7.95;5.20;;;7.50;99.90;;;;;;5130918;27;20035;-52
2020/12/09 03:18:35;;;;;;;13.90;6.55;;;7.50;99.90;;;;;;5136838;27;20035;-52
2020/12/09 03:21:40;;;;;;;10.30;5.93;;;7.40;99.90;;;;;;5123706;27;20046;-52
2020/12/09 03:24:44;;;;;;;9.05;4.93;;;7.40;99.90;;;;;;5136265;27;20417;-57
2020/12/09 03:27:49;;;;;;;62.95;23.95;;;7.40;99.90;;;;;;5136488;27;20035;-51
2020/12/09 03:30:53;;;;;;;8.20;4.90;;;7.40;99.90;;;;;;5136787;27;20050;-52
2020/12/09 03:33:57;;;;;;;6.45;4.40;;;7.50;99.90;;;;;;5127205;27;20035;-52
2020/12/09 03:37:01;;;;;;;9.77;5.00;;;7.40;99.90;;;;;;5136787;27;20039;-52
2020/12/09 03:40:06;;;;;;;72.10;7.47;;;7.40;99.90;;;;;;5136185;27;20380;-56
2020/12/09 03:43:10;;;;;;;236.30;16.83;;;7.30;99.90;;;;;;5135714;27;20062;-54
2020/12/09 03:46:13;;;;;;;131.13;13.48;;;7.30;99.90;;;;;;5136386;27;20042;-52
2020/12/09 03:49:17;;;;;;;420.13;20.70;;;7.30;99.90;;;;;;5136586;27;20050;-52
2020/12/09 03:52:22;;;;;;;855.60;46.70;;;7.30;99.90;;;;;;5124375;27;20050;-54
2020/12/09 03:55:26;;;;;;;470.90;31.65;;;7.10;99.90;;;;;;5135828;27;20042;-53
2020/12/09 03:58:30;;;;;;;861.42;58.08;;;7.10;99.90;;;;;;5136007;27;20045;-53
2020/12/09 04:01:34;;;;;;;116.40;9.70;;;7.00;99.90;;;;;;5133816;27;20050;-53
2020/12/09 04:04:38;;;;;;;207.80;14.40;;;7.00;99.90;;;;;;5132858;27;20065;-58
2020/12/09 04:07:43;;;;;;;43.92;7.50;;;6.80;99.90;;;;;;5121401;27;20062;-51
2020/12/09 04:10:47;;;;;;;214.38;17.00;;;6.80;99.90;;;;;;5133072;27;20042;-52
2020/12/09 04:13:51;;;;;;;14.02;5.22;;;6.70;99.90;;;;;;5132830;27;20046;-54
2020/12/09 04:16:55;;;;;;;35.22;6.60;;;6.60;99.90;;;;;;5132595;27;20398;-53
2020/12/09 04:20:00;;;;;;;23.23;6.63;;;6.60;99.90;;;;;;5132583;27;20038;-51
2020/12/09 04:23:04;;;;;;;6.68;4.00;;;6.70;99.90;;;;;;5132831;27;20038;-53
2020/12/09 04:26:08;;;;;;;8.65;5.40;;;6.70;99.90;;;;;;5132413;27;20035;-52
2020/12/09 04:29:14;;;;;;;23.30;10.80;;;6.70;99.90;;;;;;5132642;27;20493;-55
2020/12/09 04:32:18;;;;;;;11.48;5.85;;;6.70;99.90;;;;;;5132532;27;20042;-53
2020/12/09 04:35:22;;;;;;;13.75;6.45;;;6.80;99.90;;;;;;5132097;27;20038;-54
2020/12/09 04:38:25;;;;;;;28.77;10.68;;;6.90;99.90;;;;;;5132564;27;20335;-52
2020/12/09 04:41:29;;;;;;;7.95;5.07;;;6.90;99.90;;;;;;5131774;27;20050;-53
2020/12/09 04:44:33;;;;;;;7.82;4.70;;;6.90;99.90;;;;;;5132945;27;20446;-51
2020/12/09 04:48:06;;;;;;;6.13;5.50;;;6.90;99.90;;;;;;5132384;27;20042;-52
2020/12/09 04:51:32;;;;;;;5.53;4.35;;;7.00;99.90;;;;;;5132200;27;20043;-56
2020/12/09 04:54:41;;;;;;;5.22;3.78;;;7.10;99.90;;;;;;5132856;27;20035;-51
2020/12/09 04:58:14;;;;;;;5.40;3.88;;;7.00;99.90;;;;;;5123337;27;20039;-54
2020/12/09 05:01:18;;;;;;;4.13;3.42;;;7.10;99.90;;;;;;5130030;27;20204;-55
2020/12/09 05:04:25;;;;;;;18.63;3.95;;;7.10;99.90;;;;;;5122915;27;20039;-52
2020/12/09 05:07:36;;;;;;;3.88;2.38;;;7.10;99.90;;;;;;5117931;27;20050;-52
2020/12/09 05:10:47;;;;;;;6.25;3.10;;;7.10;99.90;;;;;;5131650;27;20043;-52
2020/12/09 05:13:53;;;;;;;6.38;3.35;;;7.10;99.90;;;;;;5130400;27;20035;-51
2020/12/09 05:16:59;;;;;;;4.07;3.05;;;7.00;99.90;;;;;;5131204;27;20485;-53
2020/12/09 05:20:04;;;;;;;56.15;6.38;;;7.00;99.90;;;;;;5122355;27;20032;-54
2020/12/09 05:23:09;;;;;;;364.80;20.52;;;7.00;99.90;;;;;;5130750;27;20058;-55
2020/12/09 05:26:38;;;;;;;414.60;24.55;;;6.80;99.90;;;;;;5131179;27;20038;-57
2020/12/09 05:29:47;;;;;;;118.63;11.30;;;6.70;99.90;;;;;;5131269;27;20055;-54
2020/12/09 05:32:53;;;;;;;112.65;9.90;;;6.70;99.90;;;;;;5131218;27;20050;-52
2020/12/09 05:36:00;;;;;;;271.48;19.08;;;6.70;99.90;;;;;;5131321;27;20409;-52
2020/12/09 05:39:06;;;;;;;272.73;22.25;;;6.70;99.90;;;;;;5128240;27;20061;-52
2020/12/09 05:42:16;;;;;;;331.15;22.35;;;6.70;99.90;;;;;;5118602;27;20522;-53
2020/12/09 05:45:23;;;;;;;216.88;17.63;;;6.70;99.90;;;;;;5123233;27;20050;-52
2020/12/09 05:48:28;;;;;;;115.20;12.65;;;6.70;99.90;;;;;;5126340;27;20504;-54
2020/12/09 05:51:32;;;;;;;29.05;8.38;;;6.70;99.90;;;;;;5117450;27;20512;-52
2020/12/09 05:54:37;;;;;;;303.35;21.45;;;6.70;99.90;;;;;;5110654;27;20055;-52
2020/12/09 05:57:42;;;;;;;439.48;32.92;;;6.70;99.90;;;;;;5115122;27;20054;-52
2020/12/09 06:01:25;;;;;;;430.27;34.38;;;6.70;99.90;;;;;;5116869;27;20124;-51
2020/12/09 06:04:42;;;;;;;303.38;23.90;;;6.80;99.90;;;;;;5117255;27;20042;-52
2020/12/09 06:07:46;;;;;;;186.45;15.73;;;6.80;99.90;;;;;;5111030;27;20043;-55
2020/12/09 06:11:00;;;;;;;367.80;28.77;;;6.80;99.90;;;;;;5116684;27;20055;-53
2020/12/09 06:14:15;;;;;;;479.20;37.67;;;6.70;99.90;;;;;;5113146;27;20405;-57
2020/12/09 06:17:19;;;;;;;519.80;32.90;;;6.70;99.90;;;;;;5115651;27;20512;-54
2020/12/09 06:20:26;;;;;;;366.65;26.35;;;6.70;99.90;;;;;;5115560;27;20038;-51
2020/12/09 06:23:31;;;;;;;754.30;54.42;;;6.70;99.90;;;;;;5122245;27;20046;-51
2020/12/09 06:26:35;;;;;;;565.95;40.70;;;6.60;99.90;;;;;;5125085;27;20038;-51
2020/12/09 06:29:39;;;;;;;326.25;26.13;;;6.60;99.90;;;;;;5114076;27;20051;-52
2020/12/09 06:32:47;;;;;;;601.42;43.22;;;6.50;99.90;;;;;;5112240;27;20066;-55
2020/12/09 06:36:14;;;;;;;383.50;34.80;;;6.50;99.90;;;;;;5111717;27;20042;-57
2020/12/09 06:39:19;;;;;;;54.35;13.40;;;6.50;99.90;;;;;;5117521;27;20053;-54
2020/12/09 06:42:24;;;;;;;18.95;9.50;;;6.50;99.90;;;;;;5114382;27;20051;-55
2020/12/09 06:45:41;;;;;;;11.50;6.60;;;6.50;99.90;;;;;;5120214;27;20425;-57
2020/12/09 06:48:45;;;;;;;6.97;4.72;;;6.60;99.90;;;;;;5119765;28;20054;-52
2020/12/09 06:51:49;;;;;;;7.82;4.47;;;6.70;99.90;;;;;;5115561;28;20043;-51
2020/12/09 06:54:53;;;;;;;3.22;2.30;;;6.70;99.90;;;;;;5107952;28;20035;-53
2020/12/09 06:58:24;;;;;;;3.63;2.35;;;6.70;99.90;;;;;;5111479;28;20477;-51
2020/12/09 07:01:28;;;;;;;3.25;1.90;;;6.80;99.90;;;;;;5106908;28;20039;-54
2020/12/09 07:04:54;;;;;;;1.30;1.20;;;6.80;99.90;;;;;;5112128;28;20405;-54
2020/12/09 07:08:00;;;;;;;1.55;0.93;;;6.90;99.90;;;;;;5112702;28;20040;-52
2020/12/09 07:11:05;;;;;;;1.63;1.10;;;6.90;99.90;;;;;;5113439;28;20028;-53
2020/12/09 07:14:09;;;;;;;8.23;1.30;;;7.00;99.90;;;;;;5108316;28;20035;-54
2020/12/09 07:17:15;;;;;;;3.40;1.75;;;7.00;99.90;;;;;;5108265;28;20032;-54
2020/12/09 07:20:20;;;;;;;5.13;1.30;;;7.00;99.90;;;;;;5107806;28;20040;-52
2020/12/09 07:23:24;;;;;;;1.70;1.00;;;7.00;99.90;;;;;;5110803;28;20056;-54
2020/12/09 07:26:29;;;;;;;1.55;0.85;;;7.10;99.90;;;;;;5110904;28;20584;-56
2020/12/09 07:29:33;;;;;;;4.20;1.30;;;7.00;99.90;;;;;;5111686;28;20040;-58
2020/12/09 07:32:37;;;;;;;15.52;5.43;;;7.10;99.90;;;;;;5120572;28;20035;-58
2020/12/09 07:35:43;;;;;;;15.82;7.03;;;7.00;99.90;;;;;;5124679;27;20104;-51
2020/12/09 07:38:47;;;;;;;7.55;4.15;;;7.00;99.90;;;;;;5120507;27;20086;-54
2020/12/09 07:41:58;;;;;;;3.10;2.03;;;7.00;99.90;;;;;;5118336;27;20391;-56
2020/12/09 07:45:07;;;;;;;4.97;3.33;;;7.00;99.90;;;;;;5124822;27;20050;-56
2020/12/09 07:48:15;;;;;;;3.97;2.70;;;7.00;99.90;;;;;;5114463;27;20030;-58
2020/12/09 07:51:28;;;;;;;4.30;3.13;;;7.10;99.90;;;;;;5110446;27;20039;-54
2020/12/09 07:54:32;;;;;;;6.78;3.00;;;7.20;99.90;;;;;;5111308;28;20516;-58
2020/12/09 07:57:37;;;;;;;4.90;2.10;;;7.30;99.90;;;;;;5112315;28;20032;-57
2020/12/09 08:00:46;;;;;;;3.40;2.33;;;7.40;99.90;;;;;;5111679;28;20039;-54
2020/12/09 08:03:51;;;;;;;3.33;1.85;;;7.40;99.90;;;;;;5112294;28;20391;-56
2020/12/09 08:07:20;;;;;;;1.85;1.10;;;7.50;99.90;;;;;;5112031;28;20036;-57
2020/12/09 08:10:33;;;;;;;2.45;1.15;;;7.50;99.90;;;;;;5111507;27;20040;-56
2020/12/09 08:13:37;;;;;;;3.78;1.33;;;7.50;99.90;;;;;;5113912;27;20032;-56
2020/12/09 08:16:41;;;;;;;2.17;1.00;;;7.40;99.90;;;;;;5112170;27;20032;-58
2020/12/09 08:20:07;;;;;;;3.60;1.13;;;7.50;99.90;;;;;;5117286;27;20035;-57
2020/12/09 08:23:14;;;;;;;1.25;0.80;;;7.50;99.90;;;;;;5131938;27;20043;-55
2020/12/09 08:26:29;;;;;;;1.77;1.02;;;7.60;99.90;;;;;;5126223;27;20031;-56
2020/12/09 08:29:37;;;;;;;2.05;1.00;;;7.60;99.90;;;;;;5117773;27;20035;-54
2020/12/09 08:33:03;;;;;;;1.38;0.80;;;7.70;99.90;;;;;;5120889;27;20486;-54
2020/12/09 08:36:13;;;;;;;2.15;0.80;;;7.70;99.90;;;;;;5121800;27;20486;-55
2020/12/09 08:39:17;;;;;;;6.65;0.90;;;7.70;99.90;;;;;;5118460;27;20036;-58
2020/12/09 08:42:21;;;;;;;3.55;1.20;;;7.70;99.90;;;;;;5113350;27;20044;-59
2020/12/09 08:45:27;;;;;;;5.50;1.83;;;7.70;99.90;;;;;;5118785;27;20043;-57
2020/12/09 08:48:34;;;;;;;2.70;1.20;;;7.80;99.90;;;;;;5120029;27;20047;-58
2020/12/09 08:51:39;;;;;;;5.22;2.25;;;7.90;99.90;;;;;;5114158;27;20024;-58
2020/12/09 08:54:43;;;;;;;7.18;2.47;;;7.80;99.90;;;;;;5119650;27;20039;-55
2020/12/09 08:57:47;;;;;;;4.15;1.20;;;7.80;99.90;;;;;;5115475;27;20028;-57
2020/12/09 09:00:52;;;;;;;4.43;1.45;;;7.80;99.90;;;;;;5116212;27;20072;-59
2020/12/09 09:03:59;;;;;;;2.35;1.23;;;7.70;99.90;;;;;;5113597;27;20031;-52
2020/12/09 09:07:04;;;;;;;1.98;1.27;;;7.60;99.90;;;;;;5114689;27;20028;-57
2020/12/09 09:10:09;;;;;;;2.67;1.40;;;7.50;99.90;;;;;;5117744;27;20387;-55
2020/12/09 09:13:13;;;;;;;2.10;1.00;;;7.60;99.90;;;;;;5116275;27;20039;-55
2020/12/09 09:16:17;;;;;;;4.45;1.67;;;7.80;99.90;;;;;;5111200;27;20379;-57
2020/12/09 09:19:21;;;;;;;2.20;1.00;;;7.80;99.90;;;;;;5116154;27;20036;-56
2020/12/09 09:22:25;;;;;;;4.25;1.05;;;7.90;99.90;;;;;;5110307;27;20035;-58
2020/12/09 09:25:29;;;;;;;1.00;0.65;;;7.90;99.90;;;;;;5111280;27;20044;-59
2020/12/09 09:28:33;;;;;;;1.33;0.80;;;7.90;99.90;;;;;;5111553;27;20035;-58
2020/12/09 09:31:38;;;;;;;3.97;1.17;;;7.90;99.90;;;;;;5111697;27;20035;-57
2020/12/09 09:34:42;;;;;;;8.95;4.15;;;7.90;99.90;;;;;;5113794;27;20406;-58
2020/12/09 09:37:47;;;;;;;13.45;5.60;;;7.90;99.90;;;;;;5111256;27;20027;-57
2020/12/09 09:40:51;;;;;;;4.25;2.20;;;8.00;99.90;;;;;;5108578;27;20047;-55
2020/12/09 09:43:55;;;;;;;1.23;0.80;;;8.20;99.90;;;;;;5108249;27;20047;-59
2020/12/09 09:46:59;;;;;;;2.50;1.60;;;8.60;99.90;;;;;;5116514;27;20027;-57
2020/12/09 09:50:05;;;;;;;4.10;1.98;;;8.80;99.90;;;;;;5118201;27;20039;-59
2020/12/09 09:53:10;;;;;;;4.65;2.28;;;8.80;99.90;;;;;;5119930;27;20387;-57
2020/12/09 09:56:13;;;;;;;2.97;1.40;;;8.60;99.90;;;;;;5118193;27;20036;-57
2020/12/09 09:59:17;;;;;;;3.20;1.15;;;8.50;99.90;;;;;;5120416;27;20036;-57
2020/12/09 10:02:22;;;;;;;2.55;1.20;;;8.60;99.90;;;;;;5115378;27;20401;-53
2020/12/09 10:05:26;;;;;;;1.13;0.80;;;8.60;99.90;;;;;;5113782;27;20039;-56
2020/12/09 10:08:30;;;;;;;1.55;0.90;;;8.60;99.90;;;;;;5113500;27;20036;-55
2020/12/09 10:11:38;;;;;;;2.33;1.17;;;8.60;99.90;;;;;;5111914;27;20031;-59
2020/12/09 10:14:42;;;;;;;4.35;1.90;;;8.50;99.90;;;;;;5113041;27;20023;-58
2020/12/09 10:17:46;;;;;;;4.40;2.03;;;8.40;99.90;;;;;;5115123;27;20031;-54
2020/12/09 10:20:50;;;;;;;2.92;0.98;;;8.40;99.90;;;;;;5110579;27;20542;-57
2020/12/09 10:23:55;;;;;;;2.40;1.38;;;8.50;99.90;;;;;;5115825;27;20040;-56
2020/12/09 10:27:01;;;;;;;1.95;1.10;;;8.60;99.90;;;;;;5110536;27;20399;-57
2020/12/09 10:30:06;;;;;;;0.82;0.55;;;8.60;99.90;;;;;;5109398;27;20036;-58
2020/12/09 10:33:12;;;;;;;2.30;1.50;;;8.60;99.90;;;;;;5116247;27;20494;-57
2020/12/09 10:36:22;;;;;;;3.80;2.30;;;8.70;99.90;;;;;;5110725;27;20035;-58
2020/12/09 10:39:26;;;;;;;3.33;1.00;;;8.90;99.90;;;;;;5111740;27;20745;-59
2020/12/09 10:42:31;;;;;;;1.50;0.60;;;9.10;99.90;;;;;;5114516;27;20043;-59
2020/12/09 10:45:35;;;;;;;3.63;1.85;;;9.40;99.90;;;;;;5118145;27;20035;-59
2020/12/09 10:48:39;;;;;;;3.53;0.68;;;9.60;99.90;;;;;;5121886;27;20039;-58
2020/12/09 10:51:49;;;;;;;1.42;0.50;;;9.60;99.90;;;;;;5121416;28;20035;-55
2020/12/09 10:54:59;;;;;;;0.80;0.60;;;9.50;99.90;;;;;;5112806;28;20035;-55
2020/12/09 10:58:05;;;;;;;6.88;2.25;;;9.40;99.90;;;;;;5123523;28;20035;-55
2020/12/09 11:01:09;;;;;;;4.63;2.65;;;9.10;99.90;;;;;;5110457;28;20039;-58
2020/12/09 11:04:13;;;;;;;9.38;5.03;;;8.80;99.90;;;;;;5107739;28;20027;-53
2020/12/09 11:07:17;;;;;;;1.10;0.60;;;8.80;99.90;;;;;;5111857;28;20023;-54
2020/12/09 11:10:21;;;;;;;1.55;0.50;;;8.90;99.90;;;;;;5110998;27;20386;-53
2020/12/09 11:13:25;;;;;;;2.17;1.15;;;8.80;99.90;;;;;;5112789;28;20031;-53
2020/12/09 11:16:30;;;;;;;1.77;0.75;;;8.80;99.90;;;;;;5112405;27;20027;-56
2020/12/09 11:19:34;;;;;;;1.33;0.75;;;8.70;99.90;;;;;;5120679;27;20031;-55
2020/12/09 11:22:39;;;;;;;0.50;0.50;;;8.80;99.90;;;;;;5133297;27;20039;-56
2020/12/09 11:25:43;;;;;;;2.33;1.20;;;8.80;99.90;;;;;;5133402;27;20039;-56
2020/12/09 11:28:49;;;;;;;1.88;1.27;;;8.90;99.90;;;;;;5123068;27;20382;-54
2020/12/09 11:31:54;;;;;;;2.50;1.58;;;8.90;99.90;;;;;;5120079;27;20027;-56
2020/12/09 11:34:58;;;;;;;2.20;1.60;;;9.00;99.90;;;;;;5114653;27;20490;-56
2020/12/09 11:38:02;;;;;;;6.55;4.88;;;9.20;99.90;;;;;;5116926;27;20040;-55
2020/12/09 11:41:07;;;;;;;4.30;1.90;;;9.20;99.90;;;;;;5112297;27;20494;-57
2020/12/09 11:44:10;;;;;;;6.63;3.25;;;9.30;99.90;;;;;;5111766;27;20040;-55
2020/12/09 11:47:15;;;;;;;1.58;0.70;;;9.20;99.90;;;;;;5117278;27;20342;-57
2020/12/09 11:50:19;;;;;;;5.05;1.15;;;9.30;99.90;;;;;;5115285;27;20036;-56
2020/12/09 11:53:22;;;;;;;1.98;1.00;;;9.40;99.90;;;;;;5113461;27;20028;-53
2020/12/09 11:56:27;;;;;;;0.75;0.60;;;9.40;99.90;;;;;;5112944;27;20031;-55
2020/12/09 11:59:32;;;;;;;2.22;0.80;;;9.40;99.90;;;;;;5112221;27;20036;-58
2020/12/09 12:02:36;;;;;;;2.03;1.08;;;9.30;99.90;;;;;;5111330;27;20028;-53
2020/12/09 12:05:42;;;;;;;1.52;1.00;;;9.50;99.90;;;;;;5116340;27;20059;-52
2020/12/09 12:08:46;;;;;;;1.75;0.90;;;9.90;99.90;;;;;;5117781;27;20031;-53
2020/12/09 12:11:51;;;;;;;1.05;0.90;;;10.20;99.90;;;;;;5115908;27;20039;-56
2020/12/09 12:15:16;;;;;;;0.80;0.60;;;10.40;99.90;;;;;;5112072;27;20043;-56
2020/12/09 12:18:20;;;;;;;1.77;0.70;;;10.50;99.90;;;;;;5114600;27;20043;-54
2020/12/09 12:21:25;;;;;;;5.22;1.60;;;10.50;99.90;;;;;;5117488;27;20043;-53
2020/12/09 12:24:32;;;;;;;2.28;1.23;;;10.30;99.90;;;;;;5114834;27;20034;-52
2020/12/09 12:27:36;;;;;;;1.75;1.15;;;10.10;99.90;;;;;;5110345;27;20043;-54
2020/12/09 12:30:40;;;;;;;2.05;0.80;;;9.90;99.90;;;;;;5113189;27;20062;-55
2020/12/09 12:33:44;;;;;;;1.88;1.05;;;9.80;99.90;;;;;;5115205;27;20035;-57
2020/12/09 12:36:49;;;;;;;9.77;3.63;;;9.60;99.90;;;;;;5112765;27;20036;-57
2020/12/09 12:39:53;;;;;;;1.95;1.30;;;9.40;99.90;;;;;;5114326;27;20035;-55
2020/12/09 12:42:58;;;;;;;3.47;1.17;;;9.30;99.90;;;;;;5112041;27;20047;-56
2020/12/09 12:46:02;;;;;;;1.90;1.00;;;9.20;99.90;;;;;;5112451;27;20036;-56
2020/12/09 12:49:06;;;;;;;4.07;1.40;;;9.20;99.90;;;;;;5110610;27;20645;-53
2020/12/09 12:52:10;;;;;;;3.13;1.13;;;9.00;99.90;;;;;;5109746;28;20508;-56
2020/12/09 12:55:14;;;;;;;8.80;1.88;;;9.00;99.90;;;;;;5114655;27;20039;-52
2020/12/09 12:58:18;;;;;;;3.40;1.70;;;9.10;99.90;;;;;;5109656;28;20043;-58
2020/12/09 13:01:22;;;;;;;2.60;1.30;;;9.20;99.90;;;;;;5110512;27;20032;-54
2020/12/09 13:04:27;;;;;;;5.15;2.83;;;9.20;99.90;;;;;;5112989;27;20027;-52
2020/12/09 13:07:32;;;;;;;5.07;2.97;;;9.30;99.90;;;;;;5110156;28;20371;-52
2020/12/09 13:10:36;;;;;;;9.55;5.10;;;9.20;99.90;;;;;;5112622;27;20035;-55
2020/12/09 13:13:41;;;;;;;3.47;2.05;;;9.10;99.90;;;;;;5117637;27;20039;-53
2020/12/09 13:16:49;;;;;;;3.58;1.73;;;9.10;99.90;;;;;;5111512;27;20035;-56
2020/12/09 13:19:53;;;;;;;5.65;2.13;;;9.10;99.90;;;;;;5116139;27;20032;-52
2020/12/09 13:22:57;;;;;;;4.85;1.55;;;9.10;99.90;;;;;;5114247;27;20489;-53
2020/12/09 13:26:03;;;;;;;4.45;2.33;;;9.10;99.90;;;;;;5110283;27;20036;-51
2020/12/09 13:29:07;;;;;;;3.22;1.70;;;9.10;99.90;;;;;;5109786;27;20036;-52
2020/12/09 13:32:11;;;;;;;2.90;1.40;;;9.00;99.90;;;;;;5111778;27;20043;-54
2020/12/09 13:35:15;;;;;;;14.20;7.28;;;8.80;99.90;;;;;;5112227;27;20486;-52
2020/12/09 13:38:19;;;;;;;7.57;5.35;;;8.80;99.90;;;;;;5118343;27;20047;-53
2020/12/09 13:41:23;;;;;;;2.88;1.80;;;8.90;99.90;;;;;;5108676;27;20047;-51
2020/12/09 13:44:29;;;;;;;5.03;2.63;;;8.90;99.90;;;;;;5112917;27;20039;-58
2020/12/09 13:47:51;;;;;;;7.88;4.45;;;8.90;99.90;;;;;;5113208;27;20031;-54
2020/12/09 13:50:55;;;;;;;1.70;0.88;;;9.00;99.90;;;;;;5122982;27;20509;-52
2020/12/09 13:53:59;;;;;;;29.17;18.92;;;8.90;99.90;;;;;;5127345;27;20031;-55
2020/12/09 13:57:04;;;;;;;45.17;26.42;;;9.00;99.90;;;;;;5111611;27;20406;-52
2020/12/09 14:00:09;;;;;;;30.73;19.30;;;9.00;99.90;;;;;;5108904;27;20410;-55
2020/12/09 14:03:14;;;;;;;7.32;4.00;;;8.90;99.90;;;;;;5108520;27;20058;-51
2020/12/09 14:06:22;;;;;;;4.30;1.98;;;8.80;99.90;;;;;;5117504;27;20046;-55
2020/12/09 14:09:29;;;;;;;2.15;0.80;;;8.70;99.90;;;;;;5109528;28;20023;-50
2020/12/09 14:12:33;;;;;;;2.42;1.42;;;8.60;99.90;;;;;;5114656;27;20039;-51
2020/12/09 14:15:37;;;;;;;3.10;1.50;;;8.60;99.90;;;;;;5120984;27;20027;-54
2020/12/09 14:18:43;;;;;;;1.70;0.80;;;8.60;99.90;;;;;;5112786;27;20031;-53
2020/12/09 14:21:47;;;;;;;2.58;0.70;;;8.60;99.90;;;;;;5113645;27;20039;-51
2020/12/09 14:24:52;;;;;;;7.05;3.33;;;8.50;99.90;;;;;;5110424;27;20409;-54
2020/12/09 14:27:56;;;;;;;7.03;3.45;;;8.40;99.90;;;;;;5110889;27;20035;-51
2020/12/09 14:31:00;;;;;;;11.57;7.18;;;8.30;99.90;;;;;;5122463;27;20043;-55
2020/12/09 14:34:05;;;;;;;6.65;4.13;;;8.20;99.90;;;;;;5111423;27;20042;-53
2020/12/09 14:37:10;;;;;;;4.28;3.55;;;8.10;99.90;;;;;;5120993;27;20039;-53
2020/12/09 14:40:16;;;;;;;5.07;1.45;;;8.00;99.90;;;;;;5117816;27;20043;-50
2020/12/09 14:43:20;;;;;;;9.88;4.95;;;8.00;99.90;;;;;;5120166;27;20055;-52
2020/12/09 14:46:25;;;;;;;17.45;10.43;;;7.90;99.90;;;;;;5110304;28;20051;-50
2020/12/09 14:49:30;;;;;;;12.40;4.95;;;7.70;99.90;;;;;;5111856;28;20047;-53
2020/12/09 14:52:38;;;;;;;7.65;3.25;;;7.70;99.90;;;;;;5110314;28;20042;-50
2020/12/09 14:55:42;;;;;;;14.15;9.15;;;7.50;99.90;;;;;;5121468;28;20031;-53
2020/12/09 14:58:47;;;;;;;4.68;2.45;;;7.40;99.90;;;;;;5125954;28;20046;-55
2020/12/09 15:01:51;;;;;;;10.52;3.30;;;7.30;99.90;;;;;;5117301;28;20039;-51
2020/12/09 15:04:55;;;;;;;8.38;5.85;;;7.20;99.90;;;;;;5123842;28;20042;-54
2020/12/09 15:07:59;;;;;;;3.65;2.45;;;7.20;99.90;;;;;;5125587;28;20035;-51
2020/12/09 15:11:03;;;;;;;6.20;1.48;;;7.10;99.90;;;;;;5118287;28;20036;-53
2020/12/09 15:14:07;;;;;;;3.75;0.80;;;7.10;99.90;;;;;;5123049;28;20039;-50
2020/12/09 15:17:11;;;;;;;1.30;0.70;;;7.10;99.90;;;;;;5115922;28;20039;-52
2020/12/09 15:20:16;;;;;;;2.17;1.30;;;7.10;99.90;;;;;;5123170;28;20359;-53
2020/12/09 15:23:19;;;;;;;3.92;2.20;;;7.00;99.90;;;;;;5123707;28;20039;-55
2020/12/09 15:26:24;;;;;;;6.57;3.28;;;7.10;99.90;;;;;;5127459;28;20035;-55
2020/12/09 15:29:28;;;;;;;5.10;2.00;;;7.10;99.90;;;;;;5118689;28;20035;-53
2020/12/09 15:32:32;;;;;;;2.30;1.40;;;7.00;99.90;;;;;;5111955;28;20032;-54
2020/12/09 15:35:36;;;;;;;2.95;0.80;;;7.00;99.90;;;;;;5122659;28;20036;-57
2020/12/09 15:38:41;;;;;;;2.03;0.93;;;7.00;99.90;;;;;;5110548;28;20052;-57
2020/12/09 15:41:46;;;;;;;4.53;2.10;;;7.00;99.90;;;;;;5119280;28;20487;-59
2020/12/09 15:44:50;;;;;;;2.58;1.52;;;7.00;99.90;;;;;;5123852;28;20039;-53
2020/12/09 15:47:54;;;;;;;1.80;1.13;;;7.00;99.90;;;;;;5109252;28;20035;-55
2020/12/09 15:50:58;;;;;;;2.92;1.52;;;7.00;99.90;;;;;;5124194;28;20434;-53
2020/12/09 15:54:03;;;;;;;34.58;23.77;;;7.00;99.90;;;;;;5114738;28;20039;-54
2020/12/09 15:57:09;;;;;;;7.20;3.22;;;7.00;99.90;;;;;;5112003;27;20050;-56
2020/12/09 16:00:13;;;;;;;1.70;1.25;;;6.70;99.90;;;;;;5122922;27;20040;-55
2020/12/09 16:03:21;;;;;;;10.88;6.45;;;6.60;99.90;;;;;;5123471;27;20414;-55
2020/12/09 16:06:25;;;;;;;13.98;7.47;;;6.60;99.90;;;;;;5116603;27;20409;-51
2020/12/09 16:09:29;;;;;;;2.10;1.75;;;6.60;99.90;;;;;;5115033;27;20042;-55
2020/12/09 16:12:33;;;;;;;2.50;1.70;;;6.70;99.90;;;;;;5125575;27;20039;-55
2020/12/09 16:15:39;;;;;;;2.50;1.52;;;6.80;99.90;;;;;;5112770;27;20565;-54